sensor_id;sensor_type;location;lat;lon;timestamp;P1;P4;P2;P0;N10;N4;N25;N1;N05;TS
78703;SPS30;68034;51.966;5.676;2023-08-17T00:01:56;0.0;0.0;0.0;0.0;;;;1.0;54.0;
78703;SPS30;68034;51.966;5.676;2023-08-17T00:04:25;0.0;0.0;0.0;0.0;;;;1.0;56.0;
78703;SPS30;68034;51.966;5.676;2023-08-17T00:06:53;0.8;0.8;0.8;0.8;;;;1.0;58.0;
78703;SPS30;68034;51.966;5.676;2023-08-17T00:09:22;0.0;0.0;0.0;0.0;;;;1.0;58.0;
78703;SPS30;68034;51.966;5.676;2023-08-17T00:11:50;0.0;0.0;0.0;0.0;;;;1.0;59.0;
78703;SPS30;68034;51.966;5.676;2023-08-17T00:14:19;0.0;0.0;0.0;0.0;;;;1.0;59.0;
78703;SPS30;68034;51.966;5.676;2023-08-17T00:16:48;0.0;0.0;0.0;0.0;;;;1.0;58.0;
78703;SPS30;68034;51.966;5.676;2023-08-17T00:19:17;0.0;0.0;0.0;0.0;;;;1.0;58.0;
78703;SPS30;68034;51.966;5.676;2023-08-17T00:21:46;0.0;0.0;0.0;0.0;;;;1.0;57.0;
78703;SPS30;68034;51.966;5.676;2023-08-17T00:24:14;0.0;0.0;0.0;0.0;;;;1.0;57.0;
78703;SPS30;68034;51.966;5.676;2023-08-17T00:26:45;0.0;0.0;0.0;0.0;;;;1.0;57.0;
78703;SPS30;68034;51.966;5.676;2023-08-17T00:29:13;0.0;0.0;0.0;0.0;;;;1.0;56.0;
78703;SPS30;68034;51.966;5.676;2023-08-17T00:31:43;0.0;0.0;0.0;0.0;;;;1.0;55.0;
78703;SPS30;68034;51.966;5.676;2023-08-17T00:34:11;0.0;0.0;0.0;0.0;;;;1.0;55.0;
78703;SPS30;68034;51.966;5.676;2023-08-17T00:36:40;0.0;0.0;0.0;0.0;;;;1.0;54.0;
78703;SPS30;68034;51.966;5.676;2023-08-17T00:39:08;0.0;0.0;0.0;0.0;;;;1.0;54.0;
78703;SPS30;68034;51.966;5.676;2023-08-17T00:41:37;0.0;0.0;0.0;0.0;;;;1.0;53.0;
78703;SPS30;68034;51.966;5.676;2023-08-17T00:44:06;0.1;0.1;0.1;0.1;;;;1.0;53.0;
78703;SPS30;68034;51.966;5.676;2023-08-17T00:46:36;0.0;0.0;0.0;0.0;;;;1.0;52.0;
78703;SPS30;68034;51.966;5.676;2023-08-17T00:49:06;0.0;0.0;0.0;0.0;;;;1.0;52.0;
78703;SPS30;68034;51.966;5.676;2023-08-17T00:51:35;0.0;0.0;0.0;0.0;;;;1.0;51.0;
78703;SPS30;68034;51.966;5.676;2023-08-17T00:54:05;0.0;0.0;0.0;0.0;;;;1.0;51.0;
78703;SPS30;68034;51.966;5.676;2023-08-17T00:56:34;0.0;0.0;0.0;0.0;;;;1.0;51.0;
78703;SPS30;68034;51.966;5.676;2023-08-17T00:59:04;0.0;0.0;0.0;0.0;;;;1.0;51.0;
78703;SPS30;68034;51.966;5.676;2023-08-17T01:01:33;0.0;0.0;0.0;0.0;;;;1.0;51.0;
78703;SPS30;68034;51.966;5.676;2023-08-17T01:04:02;0.0;0.0;0.0;0.0;;;;1.0;50.0;
78703;SPS30;68034;51.966;5.676;2023-08-17T01:06:31;0.0;0.0;0.0;0.0;;;;1.0;50.0;
78703;SPS30;68034;51.966;5.676;2023-08-17T01:08:59;0.0;0.0;0.0;0.0;;;;1.0;50.0;
78703;SPS30;68034;51.966;5.676;2023-08-17T01:11:29;0.0;0.0;0.0;0.0;;;;1.0;50.0;
78703;SPS30;68034;51.966;5.676;2023-08-17T01:14:04;0.0;0.0;0.0;0.0;;;;1.0;50.0;
78703;SPS30;68034;51.966;5.676;2023-08-17T01:16:39;4.7;4.7;4.7;4.5;;;;1.0;50.0;
78703;SPS30;68034;51.966;5.676;2023-08-17T01:19:11;0.0;0.0;0.0;0.0;;;;1.0;49.0;
78703;SPS30;68034;51.966;5.676;2023-08-17T01:21:49;0.4;0.4;0.4;0.4;;;;1.0;49.0;
78703;SPS30;68034;51.966;5.676;2023-08-17T01:24:18;0.0;0.0;0.0;0.0;;;;1.0;49.0;
78703;SPS30;68034;51.966;5.676;2023-08-17T01:26:47;0.0;0.0;0.0;0.0;;;;1.0;48.0;
78703;SPS30;68034;51.966;5.676;2023-08-17T01:29:15;0.0;0.0;0.0;0.0;;;;1.0;48.0;
78703;SPS30;68034;51.966;5.676;2023-08-17T01:31:46;0.0;0.0;0.0;0.0;;;;1.0;48.0;
78703;SPS30;68034;51.966;5.676;2023-08-17T01:34:22;0.0;0.0;0.0;0.0;;;;1.0;47.0;
78703;SPS30;68034;51.966;5.676;2023-08-17T01:36:55;0.0;0.0;0.0;0.0;;;;1.0;47.0;
78703;SPS30;68034;51.966;5.676;2023-08-17T01:39:37;0.0;0.0;0.0;0.0;;;;1.0;46.0;
78703;SPS30;68034;51.966;5.676;2023-08-17T01:42:05;0.0;0.0;0.0;0.0;;;;1.0;45.0;
78703;SPS30;68034;51.966;5.676;2023-08-17T01:44:35;0.0;0.0;0.0;0.0;;;;1.0;44.0;
78703;SPS30;68034;51.966;5.676;2023-08-17T01:47:04;0.0;0.0;0.0;0.0;;;;1.0;42.0;
78703;SPS30;68034;51.966;5.676;2023-08-17T01:49:33;0.0;0.0;0.0;0.0;;;;1.0;40.0;
78703;SPS30;68034;51.966;5.676;2023-08-17T01:52:01;0.0;0.0;0.0;0.0;;;;1.0;39.0;
78703;SPS30;68034;51.966;5.676;2023-08-17T01:54:30;0.0;0.0;0.0;0.0;;;;1.0;38.0;
78703;SPS30;68034;51.966;5.676;2023-08-17T01:56:58;0.0;0.0;0.0;0.0;;;;1.0;38.0;
78703;SPS30;68034;51.966;5.676;2023-08-17T01:59:27;0.0;0.0;0.0;0.0;;;;1.0;37.0;
78703;SPS30;68034;51.966;5.676;2023-08-17T02:01:56;0.0;0.0;0.0;0.0;;;;1.0;37.0;
78703;SPS30;68034;51.966;5.676;2023-08-17T02:04:25;0.0;0.0;0.0;0.0;;;;1.0;38.0;
78703;SPS30;68034;51.966;5.676;2023-08-17T02:06:54;0.0;0.0;0.0;0.0;;;;1.0;38.0;
78703;SPS30;68034;51.966;5.676;2023-08-17T02:09:22;0.0;0.0;0.0;0.0;;;;1.0;39.0;
78703;SPS30;68034;51.966;5.676;2023-08-17T02:11:51;0.1;0.1;0.1;0.1;;;;1.0;39.0;
78703;SPS30;68034;51.966;5.676;2023-08-17T02:14:19;0.0;0.0;0.0;0.0;;;;1.0;39.0;
78703;SPS30;68034;51.966;5.676;2023-08-17T02:16:47;0.0;0.0;0.0;0.0;;;;1.0;39.0;
78703;SPS30;68034;51.966;5.676;2023-08-17T02:19:16;0.0;0.0;0.0;0.0;;;;1.0;39.0;
78703;SPS30;68034;51.966;5.676;2023-08-17T02:21:44;0.0;0.0;0.0;0.0;;;;1.0;39.0;
78703;SPS30;68034;51.966;5.676;2023-08-17T02:24:13;0.1;0.1;0.1;0.1;;;;1.0;38.0;
78703;SPS30;68034;51.966;5.676;2023-08-17T02:26:41;0.0;0.0;0.0;0.0;;;;1.0;38.0;
78703;SPS30;68034;51.966;5.676;2023-08-17T02:29:10;0.0;0.0;0.0;0.0;;;;1.0;38.0;
78703;SPS30;68034;51.966;5.676;2023-08-17T02:31:38;0.0;0.0;0.0;0.0;;;;1.0;38.0;
78703;SPS30;68034;51.966;5.676;2023-08-17T02:34:07;0.0;0.0;0.0;0.0;;;;1.0;38.0;
78703;SPS30;68034;51.966;5.676;2023-08-17T02:36:36;0.0;0.0;0.0;0.0;;;;1.0;38.0;
78703;SPS30;68034;51.966;5.676;2023-08-17T02:39:06;0.0;0.0;0.0;0.0;;;;1.0;38.0;
78703;SPS30;68034;51.966;5.676;2023-08-17T02:41:35;0.0;0.0;0.0;0.0;;;;1.0;38.0;
78703;SPS30;68034;51.966;5.676;2023-08-17T02:44:04;0.0;0.0;0.0;0.0;;;;1.0;38.0;
78703;SPS30;68034;51.966;5.676;2023-08-17T02:46:32;0.0;0.0;0.0;0.0;;;;1.0;38.0;
78703;SPS30;68034;51.966;5.676;2023-08-17T02:49:01;0.0;0.0;0.0;0.0;;;;1.0;38.0;
78703;SPS30;68034;51.966;5.676;2023-08-17T02:51:30;0.6;0.6;0.6;0.6;;;;1.0;38.0;
78703;SPS30;68034;51.966;5.676;2023-08-17T02:53:58;0.0;0.0;0.0;0.0;;;;1.0;37.0;
78703;SPS30;68034;51.966;5.676;2023-08-17T02:56:27;0.0;0.0;0.0;0.0;;;;1.0;37.0;
78703;SPS30;68034;51.966;5.676;2023-08-17T02:58:55;0.0;0.0;0.0;0.0;;;;1.0;37.0;
78703;SPS30;68034;51.966;5.676;2023-08-17T03:01:24;0.0;0.0;0.0;0.0;;;;1.0;37.0;
78703;SPS30;68034;51.966;5.676;2023-08-17T03:03:52;0.0;0.0;0.0;0.0;;;;1.0;37.0;
78703;SPS30;68034;51.966;5.676;2023-08-17T03:06:21;0.0;0.0;0.0;0.0;;;;1.0;37.0;
78703;SPS30;68034;51.966;5.676;2023-08-17T03:08:49;0.0;0.0;0.0;0.0;;;;1.0;37.0;
78703;SPS30;68034;51.966;5.676;2023-08-17T03:11:24;0.0;0.0;0.0;0.0;;;;1.0;37.0;
78703;SPS30;68034;51.966;5.676;2023-08-17T03:13:53;0.2;0.2;0.2;0.2;;;;1.0;39.0;
78703;SPS30;68034;51.966;5.676;2023-08-17T03:16:33;0.0;0.0;0.0;0.0;;;;1.0;41.0;
78703;SPS30;68034;51.966;5.676;2023-08-17T03:19:09;0.0;0.0;0.0;0.0;;;;1.0;44.0;
78703;SPS30;68034;51.966;5.676;2023-08-17T03:21:40;0.0;0.0;0.0;0.0;;;;1.0;46.0;
78703;SPS30;68034;51.966;5.676;2023-08-17T03:24:08;0.0;0.0;0.0;0.0;;;;1.0;48.0;
78703;SPS30;68034;51.966;5.676;2023-08-17T03:26:37;0.0;0.0;0.0;0.0;;;;1.0;49.0;
78703;SPS30;68034;51.966;5.676;2023-08-17T03:29:05;0.0;0.0;0.0;0.0;;;;1.0;50.0;
78703;SPS30;68034;51.966;5.676;2023-08-17T03:31:36;0.0;0.0;0.0;0.0;;;;1.0;49.0;
78703;SPS30;68034;51.966;5.676;2023-08-17T03:34:06;0.0;0.0;0.0;0.0;;;;1.0;49.0;
78703;SPS30;68034;51.966;5.676;2023-08-17T03:36:37;0.0;0.0;0.0;0.0;;;;1.0;48.0;
78703;SPS30;68034;51.966;5.676;2023-08-17T03:39:06;0.0;0.0;0.0;0.0;;;;1.0;47.0;
78703;SPS30;68034;51.966;5.676;2023-08-17T03:41:35;0.0;0.0;0.0;0.0;;;;1.0;46.0;
78703;SPS30;68034;51.966;5.676;2023-08-17T03:44:04;0.0;0.0;0.0;0.0;;;;1.0;45.0;
78703;SPS30;68034;51.966;5.676;2023-08-17T03:46:33;0.2;0.2;0.2;0.2;;;;1.0;45.0;
78703;SPS30;68034;51.966;5.676;2023-08-17T03:49:01;0.0;0.0;0.0;0.0;;;;1.0;44.0;
78703;SPS30;68034;51.966;5.676;2023-08-17T03:51:30;0.0;0.0;0.0;0.0;;;;1.0;43.0;
78703;SPS30;68034;51.966;5.676;2023-08-17T03:53:59;0.0;0.0;0.0;0.0;;;;1.0;41.0;
78703;SPS30;68034;51.966;5.676;2023-08-17T03:56:29;0.0;0.0;0.0;0.0;;;;1.0;40.0;
78703;SPS30;68034;51.966;5.676;2023-08-17T03:58:57;0.0;0.0;0.0;0.0;;;;1.0;39.0;
78703;SPS30;68034;51.966;5.676;2023-08-17T04:01:26;0.0;0.0;0.0;0.0;;;;1.0;38.0;
78703;SPS30;68034;51.966;5.676;2023-08-17T04:03:54;0.0;0.0;0.0;0.0;;;;1.0;37.0;
78703;SPS30;68034;51.966;5.676;2023-08-17T04:06:23;0.0;0.0;0.0;0.0;;;;1.0;37.0;
78703;SPS30;68034;51.966;5.676;2023-08-17T04:08:51;0.0;0.0;0.0;0.0;;;;1.0;36.0;
78703;SPS30;68034;51.966;5.676;2023-08-17T04:11:20;0.0;0.0;0.0;0.0;;;;1.0;36.0;
78703;SPS30;68034;51.966;5.676;2023-08-17T04:13:48;0.0;0.0;0.0;0.0;;;;1.0;36.0;
78703;SPS30;68034;51.966;5.676;2023-08-17T04:16:17;0.0;0.0;0.0;0.0;;;;1.0;36.0;
78703;SPS30;68034;51.966;5.676;2023-08-17T04:18:45;0.0;0.0;0.0;0.0;;;;1.0;35.0;
78703;SPS30;68034;51.966;5.676;2023-08-17T04:21:14;0.0;0.0;0.0;0.0;;;;1.0;35.0;
78703;SPS30;68034;51.966;5.676;2023-08-17T04:23:42;0.0;0.0;0.0;0.0;;;;1.0;34.0;
78703;SPS30;68034;51.966;5.676;2023-08-17T04:26:11;0.0;0.0;0.0;0.0;;;;1.0;34.0;
78703;SPS30;68034;51.966;5.676;2023-08-17T04:28:39;0.0;0.0;0.0;0.0;;;;1.0;34.0;
78703;SPS30;68034;51.966;5.676;2023-08-17T04:31:08;0.0;0.0;0.0;0.0;;;;1.0;34.0;
78703;SPS30;68034;51.966;5.676;2023-08-17T04:33:37;0.0;0.0;0.0;0.0;;;;1.0;34.0;
78703;SPS30;68034;51.966;5.676;2023-08-17T04:36:05;0.0;0.0;0.0;0.0;;;;1.0;34.0;
78703;SPS30;68034;51.966;5.676;2023-08-17T04:38:34;0.0;0.0;0.0;0.0;;;;1.0;34.0;
78703;SPS30;68034;51.966;5.676;2023-08-17T04:41:02;0.0;0.0;0.0;0.0;;;;1.0;34.0;
78703;SPS30;68034;51.966;5.676;2023-08-17T04:43:31;0.0;0.0;0.0;0.0;;;;1.0;33.0;
78703;SPS30;68034;51.966;5.676;2023-08-17T04:46:00;0.0;0.0;0.0;0.0;;;;1.0;33.0;
78703;SPS30;68034;51.966;5.676;2023-08-17T04:48:28;0.0;0.0;0.0;0.0;;;;1.0;33.0;
78703;SPS30;68034;51.966;5.676;2023-08-17T04:50:57;0.0;0.0;0.0;0.0;;;;1.0;33.0;
78703;SPS30;68034;51.966;5.676;2023-08-17T04:53:25;0.0;0.0;0.0;0.0;;;;1.0;33.0;
78703;SPS30;68034;51.966;5.676;2023-08-17T04:55:54;0.0;0.0;0.0;0.0;;;;1.0;33.0;
78703;SPS30;68034;51.966;5.676;2023-08-17T04:58:22;0.0;0.0;0.0;0.0;;;;1.0;34.0;
78703;SPS30;68034;51.966;5.676;2023-08-17T05:00:51;0.0;0.0;0.0;0.0;;;;1.0;35.0;
78703;SPS30;68034;51.966;5.676;2023-08-17T05:03:19;0.0;0.0;0.0;0.0;;;;1.0;37.0;
78703;SPS30;68034;51.966;5.676;2023-08-17T05:05:48;0.0;0.0;0.0;0.0;;;;1.0;40.0;
78703;SPS30;68034;51.966;5.676;2023-08-17T05:08:16;0.0;0.0;0.0;0.0;;;;1.0;43.0;
78703;SPS30;68034;51.966;5.676;2023-08-17T05:10:45;0.0;0.0;0.0;0.0;;;;1.0;45.0;
78703;SPS30;68034;51.966;5.676;2023-08-17T05:13:13;7.9;7.9;7.9;7.6;;;;1.0;45.0;
78703;SPS30;68034;51.966;5.676;2023-08-17T05:15:41;0.0;0.0;0.0;0.0;;;;1.0;45.0;
78703;SPS30;68034;51.966;5.676;2023-08-17T05:18:10;0.0;0.0;0.0;0.0;;;;1.0;45.0;
78703;SPS30;68034;51.966;5.676;2023-08-17T05:20:39;0.0;0.0;0.0;0.0;;;;1.0;45.0;
78703;SPS30;68034;51.966;5.676;2023-08-17T05:23:07;0.0;0.0;0.0;0.0;;;;1.0;44.0;
78703;SPS30;68034;51.966;5.676;2023-08-17T05:25:36;0.0;0.0;0.0;0.0;;;;1.0;44.0;
78703;SPS30;68034;51.966;5.676;2023-08-17T05:28:05;0.0;0.0;0.0;0.0;;;;1.0;43.0;
78703;SPS30;68034;51.966;5.676;2023-08-17T05:30:34;0.0;0.0;0.0;0.0;;;;1.0;43.0;
78703;SPS30;68034;51.966;5.676;2023-08-17T05:33:02;0.0;0.0;0.0;0.0;;;;1.0;42.0;
78703;SPS30;68034;51.966;5.676;2023-08-17T05:35:31;0.0;0.0;0.0;0.0;;;;1.0;42.0;
78703;SPS30;68034;51.966;5.676;2023-08-17T05:38:00;0.0;0.0;0.0;0.0;;;;1.0;42.0;
78703;SPS30;68034;51.966;5.676;2023-08-17T05:40:31;0.0;0.0;0.0;0.0;;;;1.0;42.0;
78703;SPS30;68034;51.966;5.676;2023-08-17T05:43:00;0.0;0.0;0.0;0.0;;;;1.0;42.0;
78703;SPS30;68034;51.966;5.676;2023-08-17T05:45:28;0.0;0.0;0.0;0.0;;;;1.0;42.0;
78703;SPS30;68034;51.966;5.676;2023-08-17T05:47:57;0.0;0.0;0.0;0.0;;;;1.0;42.0;
78703;SPS30;68034;51.966;5.676;2023-08-17T05:50:25;0.0;0.0;0.0;0.0;;;;1.0;42.0;
78703;SPS30;68034;51.966;5.676;2023-08-17T05:52:54;0.0;0.0;0.0;0.0;;;;1.0;42.0;
78703;SPS30;68034;51.966;5.676;2023-08-17T05:55:23;0.0;0.0;0.0;0.0;;;;1.0;42.0;
78703;SPS30;68034;51.966;5.676;2023-08-17T05:57:52;0.0;0.0;0.0;0.0;;;;1.0;42.0;
78703;SPS30;68034;51.966;5.676;2023-08-17T06:00:20;0.0;0.0;0.0;0.0;;;;1.0;42.0;
78703;SPS30;68034;51.966;5.676;2023-08-17T06:02:51;0.0;0.0;0.0;0.0;;;;1.0;42.0;
78703;SPS30;68034;51.966;5.676;2023-08-17T06:05:22;0.0;0.0;0.0;0.0;;;;1.0;43.0;
78703;SPS30;68034;51.966;5.676;2023-08-17T06:07:53;0.0;0.0;0.0;0.0;;;;1.0;43.0;
78703;SPS30;68034;51.966;5.676;2023-08-17T06:10:23;0.0;0.0;0.0;0.0;;;;1.0;44.0;
78703;SPS30;68034;51.966;5.676;2023-08-17T06:12:53;0.0;0.0;0.0;0.0;;;;1.0;44.0;
78703;SPS30;68034;51.966;5.676;2023-08-17T06:15:22;0.0;0.0;0.0;0.0;;;;1.0;45.0;
78703;SPS30;68034;51.966;5.676;2023-08-17T06:17:51;0.0;0.0;0.0;0.0;;;;1.0;45.0;
78703;SPS30;68034;51.966;5.676;2023-08-17T06:20:20;0.0;0.0;0.0;0.0;;;;1.0;45.0;
78703;SPS30;68034;51.966;5.676;2023-08-17T06:22:50;0.0;0.0;0.0;0.0;;;;1.0;46.0;
78703;SPS30;68034;51.966;5.676;2023-08-17T06:25:19;0.0;0.0;0.0;0.0;;;;1.0;46.0;
78703;SPS30;68034;51.966;5.676;2023-08-17T06:27:48;0.0;0.0;0.0;0.0;;;;1.0;47.0;
78703;SPS30;68034;51.966;5.676;2023-08-17T06:30:17;0.0;0.0;0.0;0.0;;;;1.0;48.0;
78703;SPS30;68034;51.966;5.676;2023-08-17T06:32:46;0.0;0.0;0.0;0.0;;;;1.0;48.0;
78703;SPS30;68034;51.966;5.676;2023-08-17T06:35:15;0.0;0.0;0.0;0.0;;;;1.0;49.0;
78703;SPS30;68034;51.966;5.676;2023-08-17T06:37:45;0.0;0.0;0.0;0.0;;;;1.0;49.0;
78703;SPS30;68034;51.966;5.676;2023-08-17T06:40:14;0.0;0.0;0.0;0.0;;;;1.0;50.0;
78703;SPS30;68034;51.966;5.676;2023-08-17T06:42:42;0.0;0.0;0.0;0.0;;;;1.0;50.0;
78703;SPS30;68034;51.966;5.676;2023-08-17T06:45:11;0.0;0.0;0.0;0.0;;;;1.0;50.0;
78703;SPS30;68034;51.966;5.676;2023-08-17T06:47:44;0.0;0.0;0.0;0.0;;;;1.0;51.0;
78703;SPS30;68034;51.966;5.676;2023-08-17T06:50:14;0.5;0.5;0.5;0.5;;;;1.0;51.0;
78703;SPS30;68034;51.966;5.676;2023-08-17T06:52:43;0.0;0.0;0.0;0.0;;;;1.0;52.0;
78703;SPS30;68034;51.966;5.676;2023-08-17T06:55:12;0.0;0.0;0.0;0.0;;;;1.0;52.0;
78703;SPS30;68034;51.966;5.676;2023-08-17T06:57:43;0.0;0.0;0.0;0.0;;;;1.0;53.0;
78703;SPS30;68034;51.966;5.676;2023-08-17T07:00:12;0.0;0.0;0.0;0.0;;;;1.0;54.0;
78703;SPS30;68034;51.966;5.676;2023-08-17T07:02:41;0.0;0.0;0.0;0.0;;;;1.0;55.0;
78703;SPS30;68034;51.966;5.676;2023-08-17T07:05:10;0.0;0.0;0.0;0.0;;;;1.0;56.0;
78703;SPS30;68034;51.966;5.676;2023-08-17T07:07:40;0.0;0.0;0.0;0.0;;;;1.0;56.0;
78703;SPS30;68034;51.966;5.676;2023-08-17T07:10:10;0.0;0.0;0.0;0.0;;;;1.0;57.0;
78703;SPS30;68034;51.966;5.676;2023-08-17T07:12:39;0.0;0.0;0.0;0.0;;;;1.0;57.0;
78703;SPS30;68034;51.966;5.676;2023-08-17T07:15:08;9.2;9.2;9.2;8.8;;;;1.0;57.0;
78703;SPS30;68034;51.966;5.676;2023-08-17T07:17:37;0.0;0.0;0.0;0.0;;;;1.0;57.0;
78703;SPS30;68034;51.966;5.676;2023-08-17T07:20:06;0.0;0.0;0.0;0.0;;;;1.0;58.0;
78703;SPS30;68034;51.966;5.676;2023-08-17T07:22:35;0.0;0.0;0.0;0.0;;;;1.0;58.0;
78703;SPS30;68034;51.966;5.676;2023-08-17T07:25:04;0.1;0.1;0.1;0.1;;;;1.0;59.0;
78703;SPS30;68034;51.966;5.676;2023-08-17T07:27:34;0.0;0.0;0.0;0.0;;;;1.0;59.0;
78703;SPS30;68034;51.966;5.676;2023-08-17T07:30:03;0.0;0.0;0.0;0.0;;;;1.0;59.0;
78703;SPS30;68034;51.966;5.676;2023-08-17T07:32:33;0.0;0.0;0.0;0.0;;;;1.0;60.0;
78703;SPS30;68034;51.966;5.676;2023-08-17T07:35:02;0.0;0.0;0.0;0.0;;;;1.0;60.0;
78703;SPS30;68034;51.966;5.676;2023-08-17T07:37:31;0.0;0.0;0.0;0.0;;;;1.0;62.0;
78703;SPS30;68034;51.966;5.676;2023-08-17T07:40:00;1.5;1.5;1.5;1.5;;;;1.0;63.0;
78703;SPS30;68034;51.966;5.676;2023-08-17T07:42:30;0.0;0.0;0.0;0.0;;;;1.0;64.0;
78703;SPS30;68034;51.966;5.676;2023-08-17T07:44:59;0.0;0.0;0.0;0.0;;;;1.0;65.0;
78703;SPS30;68034;51.966;5.676;2023-08-17T07:47:30;0.0;0.0;0.0;0.0;;;;1.0;68.0;
78703;SPS30;68034;51.966;5.676;2023-08-17T07:49:59;0.0;0.0;0.0;0.0;;;;1.0;71.0;
78703;SPS30;68034;51.966;5.676;2023-08-17T07:52:27;0.0;0.0;0.0;0.0;;;;1.0;72.0;
78703;SPS30;68034;51.966;5.676;2023-08-17T07:54:58;0.0;0.0;0.0;0.0;;;;1.0;73.0;
78703;SPS30;68034;51.966;5.676;2023-08-17T07:57:26;0.0;0.0;0.0;0.0;;;;1.0;73.0;
78703;SPS30;68034;51.966;5.676;2023-08-17T07:59:55;0.0;0.0;0.0;0.0;;;;1.0;74.0;
78703;SPS30;68034;51.966;5.676;2023-08-17T08:02:23;0.0;0.0;0.0;0.0;;;;1.0;74.0;
78703;SPS30;68034;51.966;5.676;2023-08-17T08:04:58;0.0;0.0;0.0;0.0;;;;1.0;76.0;
78703;SPS30;68034;51.966;5.676;2023-08-17T08:07:27;0.0;0.0;0.0;0.0;;;;1.0;82.0;
78703;SPS30;68034;51.966;5.676;2023-08-17T08:09:58;0.2;0.2;0.2;0.1;;;;1.0;88.0;
78703;SPS30;68034;51.966;5.676;2023-08-17T08:12:27;0.0;0.0;0.0;0.0;;;;1.0;91.0;
78703;SPS30;68034;51.966;5.676;2023-08-17T08:14:55;0.0;0.0;0.0;0.0;;;;1.0;92.0;
78703;SPS30;68034;51.966;5.676;2023-08-17T08:17:24;0.0;0.0;0.0;0.0;;;;1.0;92.0;
78703;SPS30;68034;51.966;5.676;2023-08-17T08:19:53;0.0;0.0;0.0;0.0;;;;1.0;92.0;
78703;SPS30;68034;51.966;5.676;2023-08-17T08:22:22;0.0;0.0;0.0;0.0;;;;1.0;95.0;
78703;SPS30;68034;51.966;5.676;2023-08-17T08:24:51;0.0;0.0;0.0;0.0;;;;1.0;95.0;
78703;SPS30;68034;51.966;5.676;2023-08-17T08:27:20;0.1;0.1;0.1;0.1;;;;1.0;94.0;
78703;SPS30;68034;51.966;5.676;2023-08-17T08:29:49;0.0;0.0;0.0;0.0;;;;1.0;94.0;
78703;SPS30;68034;51.966;5.676;2023-08-17T08:32:18;1.2;1.2;1.2;1.2;;;;1.0;93.0;
78703;SPS30;68034;51.966;5.676;2023-08-17T08:34:46;0.0;0.0;0.0;0.0;;;;1.0;92.0;
78703;SPS30;68034;51.966;5.676;2023-08-17T08:37:15;0.3;0.3;0.3;0.3;;;;1.0;91.0;
78703;SPS30;68034;51.966;5.676;2023-08-17T08:39:50;0.1;0.1;0.1;0.1;;;;1.0;90.0;
78703;SPS30;68034;51.966;5.676;2023-08-17T08:42:21;0.0;0.0;0.0;0.0;;;;1.0;89.0;
78703;SPS30;68034;51.966;5.676;2023-08-17T08:44:50;0.0;0.0;0.0;0.0;;;;1.0;88.0;
78703;SPS30;68034;51.966;5.676;2023-08-17T08:47:19;0.0;0.0;0.0;0.0;;;;1.0;87.0;
78703;SPS30;68034;51.966;5.676;2023-08-17T08:49:54;0.5;0.5;0.5;0.5;;;;1.0;86.0;
78703;SPS30;68034;51.966;5.676;2023-08-17T08:52:31;0.0;0.0;0.0;0.0;;;;1.0;91.0;
78703;SPS30;68034;51.966;5.676;2023-08-17T08:55:02;0.1;0.1;0.1;0.0;;;;1.0;91.0;
78703;SPS30;68034;51.966;5.676;2023-08-17T08:57:35;0.0;0.0;0.0;0.0;;;;1.0;88.0;
78703;SPS30;68034;51.966;5.676;2023-08-17T09:00:07;0.0;0.0;0.0;0.0;;;;1.0;86.0;
78703;SPS30;68034;51.966;5.676;2023-08-17T09:02:36;0.0;0.0;0.0;0.0;;;;1.0;84.0;
78703;SPS30;68034;51.966;5.676;2023-08-17T09:05:06;0.0;0.0;0.0;0.0;;;;1.0;83.0;
78703;SPS30;68034;51.966;5.676;2023-08-17T09:07:38;0.5;0.5;0.5;0.5;;;;1.0;82.0;
78703;SPS30;68034;51.966;5.676;2023-08-17T09:10:08;0.0;0.0;0.0;0.0;;;;1.0;81.0;
78703;SPS30;68034;51.966;5.676;2023-08-17T09:12:38;0.0;0.0;0.0;0.0;;;;1.0;81.0;
78703;SPS30;68034;51.966;5.676;2023-08-17T09:15:08;0.0;0.0;0.0;0.0;;;;1.0;81.0;
78703;SPS30;68034;51.966;5.676;2023-08-17T09:17:37;0.0;0.0;0.0;0.0;;;;1.0;81.0;
78703;SPS30;68034;51.966;5.676;2023-08-17T09:20:07;0.0;0.0;0.0;0.0;;;;1.0;81.0;
78703;SPS30;68034;51.966;5.676;2023-08-17T09:22:41;0.0;0.0;0.0;0.0;;;;1.0;81.0;
78703;SPS30;68034;51.966;5.676;2023-08-17T09:25:10;0.0;0.0;0.0;0.0;;;;1.0;83.0;
78703;SPS30;68034;51.966;5.676;2023-08-17T09:27:39;0.0;0.0;0.0;0.0;;;;1.0;84.0;
78703;SPS30;68034;51.966;5.676;2023-08-17T09:30:09;0.0;0.0;0.0;0.0;;;;1.0;86.0;
78703;SPS30;68034;51.966;5.676;2023-08-17T09:32:38;0.4;0.4;0.4;0.4;;;;1.0;87.0;
78703;SPS30;68034;51.966;5.676;2023-08-17T09:35:09;0.8;0.8;0.8;0.8;;;;1.0;88.0;
78703;SPS30;68034;51.966;5.676;2023-08-17T09:37:37;0.0;0.0;0.0;0.0;;;;1.0;89.0;
78703;SPS30;68034;51.966;5.676;2023-08-17T09:40:09;0.0;0.0;0.0;0.0;;;;1.0;89.0;
78703;SPS30;68034;51.966;5.676;2023-08-17T09:42:38;0.0;0.0;0.0;0.0;;;;1.0;90.0;
78703;SPS30;68034;51.966;5.676;2023-08-17T09:45:07;0.0;0.0;0.0;0.0;;;;1.0;90.0;
78703;SPS30;68034;51.966;5.676;2023-08-17T09:47:36;0.0;0.0;0.0;0.0;;;;1.0;91.0;
78703;SPS30;68034;51.966;5.676;2023-08-17T09:50:05;0.0;0.0;0.0;0.0;;;;1.0;92.0;
78703;SPS30;68034;51.966;5.676;2023-08-17T09:52:38;0.0;0.0;0.0;0.0;;;;1.0;92.0;
78703;SPS30;68034;51.966;5.676;2023-08-17T09:55:08;0.0;0.0;0.0;0.0;;;;1.0;91.0;
78703;SPS30;68034;51.966;5.676;2023-08-17T09:57:40;0.1;0.1;0.1;0.1;;;;1.0;91.0;
78703;SPS30;68034;51.966;5.676;2023-08-17T10:00:14;0.0;0.0;0.0;0.0;;;;1.0;91.0;
78703;SPS30;68034;51.966;5.676;2023-08-17T10:02:53;0.0;0.0;0.0;0.0;;;;1.0;93.0;
78703;SPS30;68034;51.966;5.676;2023-08-17T10:05:34;0.0;0.0;0.0;0.0;;;;1.0;97.0;
78703;SPS30;68034;51.966;5.676;2023-08-17T10:08:09;0.0;0.0;0.0;0.0;;;;1.0;103.0;
78703;SPS30;68034;51.966;5.676;2023-08-17T10:10:40;0.0;0.0;0.0;0.0;;;;1.0;107.0;
78703;SPS30;68034;51.966;5.676;2023-08-17T10:13:14;0.8;0.8;0.8;0.7;;;;1.0;107.0;
78703;SPS30;68034;51.966;5.676;2023-08-17T10:15:51;0.0;0.0;0.0;0.0;;;;1.0;107.0;
78703;SPS30;68034;51.966;5.676;2023-08-17T10:18:31;0.0;0.0;0.0;0.0;;;;1.0;107.0;
78703;SPS30;68034;51.966;5.676;2023-08-17T10:21:10;0.0;0.0;0.0;0.0;;;;1.0;107.0;
78703;SPS30;68034;51.966;5.676;2023-08-17T10:23:43;0.0;0.0;0.0;0.0;;;;1.0;107.0;
78703;SPS30;68034;51.966;5.676;2023-08-17T10:26:13;0.0;0.0;0.0;0.0;;;;1.0;105.0;
78703;SPS30;68034;51.966;5.676;2023-08-17T10:28:44;0.0;0.0;0.0;0.0;;;;1.0;104.0;
78703;SPS30;68034;51.966;5.676;2023-08-17T10:31:14;0.0;0.0;0.0;0.0;;;;1.0;104.0;
78703;SPS30;68034;51.966;5.676;2023-08-17T10:33:44;0.0;0.0;0.0;0.0;;;;1.0;104.0;
78703;SPS30;68034;51.966;5.676;2023-08-17T10:36:14;0.0;0.0;0.0;0.0;;;;1.0;103.0;
78703;SPS30;68034;51.966;5.676;2023-08-17T10:38:46;0.0;0.0;0.0;0.0;;;;1.0;102.0;
78703;SPS30;68034;51.966;5.676;2023-08-17T10:41:14;0.0;0.0;0.0;0.0;;;;1.0;102.0;
78703;SPS30;68034;51.966;5.676;2023-08-17T10:43:55;0.0;0.0;0.0;0.0;;;;1.0;103.0;
78703;SPS30;68034;51.966;5.676;2023-08-17T10:46:33;0.1;0.1;0.1;0.1;;;;1.0;104.0;
78703;SPS30;68034;51.966;5.676;2023-08-17T10:49:03;0.7;0.7;0.7;0.6;;;;1.0;104.0;
78703;SPS30;68034;51.966;5.676;2023-08-17T10:51:33;0.0;0.0;0.0;0.0;;;;1.0;105.0;
78703;SPS30;68034;51.966;5.676;2023-08-17T10:54:03;0.0;0.0;0.0;0.0;;;;1.0;106.0;
78703;SPS30;68034;51.966;5.676;2023-08-17T10:56:32;0.0;0.0;0.0;0.0;;;;1.0;108.0;
78703;SPS30;68034;51.966;5.676;2023-08-17T10:59:02;0.0;0.0;0.0;0.0;;;;1.0;111.0;
78703;SPS30;68034;51.966;5.676;2023-08-17T11:01:47;0.0;0.0;0.0;0.0;;;;1.0;115.0;
78703;SPS30;68034;51.966;5.676;2023-08-17T11:04:19;0.0;0.0;0.0;0.0;;;;1.0;117.0;
78703;SPS30;68034;51.966;5.676;2023-08-17T11:06:49;0.0;0.0;0.0;0.0;;;;1.0;120.0;
78703;SPS30;68034;51.966;5.676;2023-08-17T11:09:30;0.0;0.0;0.0;0.0;;;;1.0;122.0;
78703;SPS30;68034;51.966;5.676;2023-08-17T11:11:58;1.2;1.2;1.2;1.1;;;;1.0;123.0;
78703;SPS30;68034;51.966;5.676;2023-08-17T11:14:33;0.0;0.0;0.0;0.0;;;;1.0;123.0;
78703;SPS30;68034;51.966;5.676;2023-08-17T11:17:04;0.0;0.0;0.0;0.0;;;;1.0;123.0;
78703;SPS30;68034;51.966;5.676;2023-08-17T11:19:33;0.0;0.0;0.0;0.0;;;;1.0;122.0;
78703;SPS30;68034;51.966;5.676;2023-08-17T11:22:07;0.0;0.0;0.0;0.0;;;;1.0;121.0;
78703;SPS30;68034;51.966;5.676;2023-08-17T11:24:37;0.0;0.0;0.0;0.0;;;;1.0;119.0;
78703;SPS30;68034;51.966;5.676;2023-08-17T11:27:08;0.4;0.4;0.4;0.3;;;;1.0;118.0;
78703;SPS30;68034;51.966;5.676;2023-08-17T11:29:37;0.0;0.0;0.0;0.0;;;;1.0;117.0;
78703;SPS30;68034;51.966;5.676;2023-08-17T11:32:08;0.2;0.2;0.2;0.2;;;;1.0;117.0;
78703;SPS30;68034;51.966;5.676;2023-08-17T11:34:37;0.0;0.0;0.0;0.0;;;;1.0;118.0;
78703;SPS30;68034;51.966;5.676;2023-08-17T11:37:10;0.0;0.0;0.0;0.0;;;;1.0;117.0;
78703;SPS30;68034;51.966;5.676;2023-08-17T11:39:40;0.0;0.0;0.0;0.0;;;;1.0;117.0;
78703;SPS30;68034;51.966;5.676;2023-08-17T11:42:09;0.0;0.0;0.0;0.0;;;;1.0;116.0;
78703;SPS30;68034;51.966;5.676;2023-08-17T11:44:40;0.0;0.0;0.0;0.0;;;;1.0;116.0;
78703;SPS30;68034;51.966;5.676;2023-08-17T11:47:09;0.0;0.0;0.0;0.0;;;;1.0;116.0;
78703;SPS30;68034;51.966;5.676;2023-08-17T11:49:39;0.0;0.0;0.0;0.0;;;;1.0;115.0;
78703;SPS30;68034;51.966;5.676;2023-08-17T11:52:10;0.0;0.0;0.0;0.0;;;;1.0;116.0;
78703;SPS30;68034;51.966;5.676;2023-08-17T11:54:41;0.0;0.0;0.0;0.0;;;;1.0;116.0;
78703;SPS30;68034;51.966;5.676;2023-08-17T11:57:10;0.0;0.0;0.0;0.0;;;;1.0;116.0;
78703;SPS30;68034;51.966;5.676;2023-08-17T11:59:39;2.2;2.2;2.2;2.1;;;;1.0;116.0;
78703;SPS30;68034;51.966;5.676;2023-08-17T12:02:09;0.0;0.0;0.0;0.0;;;;1.0;116.0;
78703;SPS30;68034;51.966;5.676;2023-08-17T12:04:45;0.0;0.0;0.0;0.0;;;;1.0;116.0;
78703;SPS30;68034;51.966;5.676;2023-08-17T12:07:14;0.0;0.0;0.0;0.0;;;;1.0;118.0;
78703;SPS30;68034;51.966;5.676;2023-08-17T12:09:44;0.0;0.0;0.0;0.0;;;;1.0;122.0;
78703;SPS30;68034;51.966;5.676;2023-08-17T12:12:16;0.3;0.3;0.3;0.3;;;;1.0;124.0;
78703;SPS30;68034;51.966;5.676;2023-08-17T12:14:48;0.0;0.0;0.0;0.0;;;;1.0;123.0;
78703;SPS30;68034;51.966;5.676;2023-08-17T12:17:17;0.0;0.0;0.0;0.0;;;;1.0;122.0;
78703;SPS30;68034;51.966;5.676;2023-08-17T12:19:50;0.0;0.0;0.0;0.0;;;;1.0;121.0;
78703;SPS30;68034;51.966;5.676;2023-08-17T12:22:25;0.0;0.0;0.0;0.0;;;;1.0;121.0;
78703;SPS30;68034;51.966;5.676;2023-08-17T12:24:55;0.0;0.0;0.0;0.0;;;;1.0;121.0;